KMGM/MGM METAR and TAF weather

Enter ICAO airport designator
Station Type Date Time Source
KMGM METAR 2019/11/14 03:53 UTC NOAA

KMGM 140353Z 10006KT 10SM CLR 03/M03 A3029 RMK AO2 SLP257 T00281033


Station Type Date Time Source
KMGM Decoded METAR 2019/11/14 03:53 UTC NOAA

MONTGOMERY DANNELLY FIELD, AL, United States (KMGM) 32-18N 86-24W 63M
Nov 13, 2019 - 10:53 PM EST / 2019.11.14 0353 UTC
Wind: from the E (100 degrees) at 7 MPH (6 KT):0
Visibility: 10 mile(s):0
Sky conditions: clear
Temperature: 37.0 F (2.8 C)
Dew Point: 26.1 F (-3.3 C)
Relative Humidity: 64%
Pressure (altimeter): 30.29 in. Hg (1025 hPa)
ob: KMGM 140353Z 10006KT 10SM CLR 03/M03 A3029 RMK AO2 SLP257 T00281033
cycle: 4

Station Type Date Time Source
KMGM TAF 2019/11/13 18:33 UTC NOAA

TAF KMGM 131730Z 1318/1418 12010KT P6SM FEW250
FM132300 08005KT P6SM SCT250

Example: see airport list